sensor_id;sensor_type;location;lat;lon;timestamp;pressure;altitude;pressure_sealevel;temperature;humidity
20971;BME280;10644;48.834;10.088;2022-10-16T00:01:28;96585.69;;;19.61;68.38
20971;BME280;10644;48.834;10.088;2022-10-16T00:03:55;96587.44;;;19.70;68.18
20971;BME280;10644;48.834;10.088;2022-10-16T00:06:29;96581.13;;;19.72;67.64
20971;BME280;10644;48.834;10.088;2022-10-16T00:08:55;96572.63;;;19.80;67.83
20971;BME280;10644;48.834;10.088;2022-10-16T00:11:34;96584.94;;;19.87;67.48
20971;BME280;10644;48.834;10.088;2022-10-16T00:14:03;96575.38;;;19.78;67.35
20971;BME280;10644;48.834;10.088;2022-10-16T00:16:33;96563.06;;;19.71;67.67
20971;BME280;10644;48.834;10.088;2022-10-16T00:18:58;96569.44;;;19.40;68.97
20971;BME280;10644;48.834;10.088;2022-10-16T00:24:12;96563.97;;;19.33;68.89
20971;BME280;10644;48.834;10.088;2022-10-16T00:26:38;96577.38;;;19.38;68.77
20971;BME280;10644;48.834;10.088;2022-10-16T00:29:05;96580.66;;;19.50;68.29
20971;BME280;10644;48.834;10.088;2022-10-16T00:31:51;96575.03;;;19.54;67.97
20971;BME280;10644;48.834;10.088;2022-10-16T00:34:23;96585.28;;;19.65;67.94
20971;BME280;10644;48.834;10.088;2022-10-16T00:36:48;96586.47;;;19.71;67.52
20971;BME280;10644;48.834;10.088;2022-10-16T00:39:13;96591.53;;;19.72;67.45
20971;BME280;10644;48.834;10.088;2022-10-16T00:41:39;96591.41;;;19.74;67.53
20971;BME280;10644;48.834;10.088;2022-10-16T00:47:28;96586.59;;;19.79;67.10
20971;BME280;10644;48.834;10.088;2022-10-16T00:50:28;96582.94;;;19.72;67.46
20971;BME280;10644;48.834;10.088;2022-10-16T00:53:01;96593.03;;;19.75;67.26
20971;BME280;10644;48.834;10.088;2022-10-16T00:55:28;96591.00;;;19.69;67.52
20971;BME280;10644;48.834;10.088;2022-10-16T00:57:57;96595.13;;;19.62;67.86
20971;BME280;10644;48.834;10.088;2022-10-16T01:00:25;96588.97;;;19.63;67.61
20971;BME280;10644;48.834;10.088;2022-10-16T01:02:57;96588.41;;;19.69;67.76
20971;BME280;10644;48.834;10.088;2022-10-16T01:05:41;96592.94;;;19.67;67.89
20971;BME280;10644;48.834;10.088;2022-10-16T01:08:14;96592.38;;;19.73;67.52
20971;BME280;10644;48.834;10.088;2022-10-16T01:10:54;96603.00;;;19.79;67.15
20971;BME280;10644;48.834;10.088;2022-10-16T01:13:33;96595.63;;;19.75;67.05
20971;BME280;10644;48.834;10.088;2022-10-16T01:22:19;96590.09;;;19.51;67.50
20971;BME280;10644;48.834;10.088;2022-10-16T01:24:52;96578.16;;;19.58;67.49
20971;BME280;10644;48.834;10.088;2022-10-16T01:27:27;96597.31;;;19.57;67.30
20971;BME280;10644;48.834;10.088;2022-10-16T01:30:10;96595.41;;;19.59;67.26
20971;BME280;10644;48.834;10.088;2022-10-16T01:40:46;96598.81;;;19.59;66.79
20971;BME280;10644;48.834;10.088;2022-10-16T01:43:15;96602.38;;;19.49;67.17
20971;BME280;10644;48.834;10.088;2022-10-16T01:45:45;96597.88;;;19.51;66.95
20971;BME280;10644;48.834;10.088;2022-10-16T01:48:17;96591.06;;;19.50;66.87
20971;BME280;10644;48.834;10.088;2022-10-16T01:50:52;96590.50;;;19.46;66.92
20971;BME280;10644;48.834;10.088;2022-10-16T01:53:19;96603.63;;;19.54;66.98
20971;BME280;10644;48.834;10.088;2022-10-16T01:55:48;96604.81;;;19.60;66.85
20971;BME280;10644;48.834;10.088;2022-10-16T01:58:16;96611.41;;;19.54;66.52
20971;BME280;10644;48.834;10.088;2022-10-16T02:00:45;96605.38;;;19.54;66.56
20971;BME280;10644;48.834;10.088;2022-10-16T02:03:23;96616.63;;;19.45;66.57
20971;BME280;10644;48.834;10.088;2022-10-16T02:05:57;96620.03;;;19.45;66.45
20971;BME280;10644;48.834;10.088;2022-10-16T02:08:35;96617.72;;;19.42;66.92
20971;BME280;10644;48.834;10.088;2022-10-16T02:11:02;96608.84;;;19.45;66.61
20971;BME280;10644;48.834;10.088;2022-10-16T02:13:34;96605.81;;;19.49;66.33
20971;BME280;10644;48.834;10.088;2022-10-16T02:16:03;96598.47;;;19.35;67.04
20971;BME280;10644;48.834;10.088;2022-10-16T02:18:29;96596.53;;;19.28;66.92
20971;BME280;10644;48.834;10.088;2022-10-16T02:21:02;96607.19;;;19.34;66.71
20971;BME280;10644;48.834;10.088;2022-10-16T02:26:45;96594.34;;;19.23;66.75
20971;BME280;10644;48.834;10.088;2022-10-16T02:29:17;96607.00;;;18.98;67.86
20971;BME280;10644;48.834;10.088;2022-10-16T02:31:49;96604.28;;;18.80;68.43
20971;BME280;10644;48.834;10.088;2022-10-16T02:34:18;96602.50;;;18.81;68.11
20971;BME280;10644;48.834;10.088;2022-10-16T02:36:46;96609.06;;;18.85;68.07
20971;BME280;10644;48.834;10.088;2022-10-16T02:39:21;96606.59;;;18.74;68.65
20971;BME280;10644;48.834;10.088;2022-10-16T02:41:53;96603.19;;;18.73;68.64
20971;BME280;10644;48.834;10.088;2022-10-16T02:44:20;96599.34;;;18.77;68.92
20971;BME280;10644;48.834;10.088;2022-10-16T02:46:46;96593.47;;;18.66;68.88
20971;BME280;10644;48.834;10.088;2022-10-16T02:49:12;96592.09;;;18.62;69.02
20971;BME280;10644;48.834;10.088;2022-10-16T02:51:37;96598.91;;;18.63;69.00
20971;BME280;10644;48.834;10.088;2022-10-16T02:54:12;96600.84;;;18.61;69.38
20971;BME280;10644;48.834;10.088;2022-10-16T02:56:38;96604.41;;;18.69;68.80
20971;BME280;10644;48.834;10.088;2022-10-16T02:59:05;96619.56;;;18.74;68.73
20971;BME280;10644;48.834;10.088;2022-10-16T03:01:36;96624.22;;;18.80;68.50
20971;BME280;10644;48.834;10.088;2022-10-16T03:04:06;96621.63;;;18.80;68.09
20971;BME280;10644;48.834;10.088;2022-10-16T03:06:32;96636.41;;;18.89;68.49
20971;BME280;10644;48.834;10.088;2022-10-16T03:08:58;96641.47;;;19.00;67.93
20971;BME280;10644;48.834;10.088;2022-10-16T03:11:32;96636.16;;;19.11;67.75
20971;BME280;10644;48.834;10.088;2022-10-16T03:14:07;96645.34;;;19.24;67.55
20971;BME280;10644;48.834;10.088;2022-10-16T03:16:32;96641.94;;;19.24;67.44
20971;BME280;10644;48.834;10.088;2022-10-16T03:18:59;96636.31;;;19.28;67.35
20971;BME280;10644;48.834;10.088;2022-10-16T03:21:26;96622.66;;;19.36;67.50
20971;BME280;10644;48.834;10.088;2022-10-16T03:23:57;96609.63;;;19.17;67.26
20971;BME280;10644;48.834;10.088;2022-10-16T03:26:24;96594.06;;;19.17;67.34
20971;BME280;10644;48.834;10.088;2022-10-16T03:28:50;96588.84;;;18.98;68.33
20971;BME280;10644;48.834;10.088;2022-10-16T03:31:15;96580.75;;;18.63;69.25
20971;BME280;10644;48.834;10.088;2022-10-16T03:33:41;96581.00;;;18.50;69.86
20971;BME280;10644;48.834;10.088;2022-10-16T03:36:06;96575.44;;;18.64;69.95
20971;BME280;10644;48.834;10.088;2022-10-16T03:38:32;96583.38;;;18.82;69.27
20971;BME280;10644;48.834;10.088;2022-10-16T03:40:57;96578.88;;;18.93;68.85
20971;BME280;10644;48.834;10.088;2022-10-16T03:43:45;96579.53;;;18.95;68.64
20971;BME280;10644;48.834;10.088;2022-10-16T03:46:11;96586.94;;;18.90;68.89
20971;BME280;10644;48.834;10.088;2022-10-16T03:48:44;96599.50;;;18.95;68.76
20971;BME280;10644;48.834;10.088;2022-10-16T03:51:20;96596.25;;;18.93;68.47
20971;BME280;10644;48.834;10.088;2022-10-16T03:53:45;96596.25;;;18.93;68.77
20971;BME280;10644;48.834;10.088;2022-10-16T03:56:10;96594.69;;;18.81;69.08
20971;BME280;10644;48.834;10.088;2022-10-16T03:58:36;96598.69;;;18.85;68.87
20971;BME280;10644;48.834;10.088;2022-10-16T04:01:01;96599.78;;;18.92;68.76
20971;BME280;10644;48.834;10.088;2022-10-16T04:03:34;96610.16;;;18.92;68.74
20971;BME280;10644;48.834;10.088;2022-10-16T04:05:59;96612.50;;;18.85;69.11
20971;BME280;10644;48.834;10.088;2022-10-16T04:08:31;96596.38;;;18.91;69.00
20971;BME280;10644;48.834;10.088;2022-10-16T04:11:00;96604.41;;;18.79;69.11
20971;BME280;10644;48.834;10.088;2022-10-16T04:13:25;96601.94;;;18.77;69.01
20971;BME280;10644;48.834;10.088;2022-10-16T04:16:05;96602.78;;;18.87;68.90
20971;BME280;10644;48.834;10.088;2022-10-16T04:18:47;96604.97;;;18.92;68.76
20971;BME280;10644;48.834;10.088;2022-10-16T04:21:12;96605.50;;;18.86;69.01
20971;BME280;10644;48.834;10.088;2022-10-16T04:23:38;96605.50;;;18.86;68.85
20971;BME280;10644;48.834;10.088;2022-10-16T04:26:04;96616.19;;;18.92;68.85
20971;BME280;10644;48.834;10.088;2022-10-16T04:28:33;96626.16;;;18.97;68.74
20971;BME280;10644;48.834;10.088;2022-10-16T04:31:06;96619.75;;;19.01;67.91
20971;BME280;10644;48.834;10.088;2022-10-16T04:33:31;96621.31;;;18.64;68.56
20971;BME280;10644;48.834;10.088;2022-10-16T04:36:03;96627.84;;;18.49;69.10
20971;BME280;10644;48.834;10.088;2022-10-16T04:38:29;96626.94;;;18.29;70.17
20971;BME280;10644;48.834;10.088;2022-10-16T04:40:56;96636.84;;;18.45;69.67
20971;BME280;10644;48.834;10.088;2022-10-16T04:43:46;96632.50;;;18.55;69.13
20971;BME280;10644;48.834;10.088;2022-10-16T04:46:11;96638.56;;;18.65;68.89
20971;BME280;10644;48.834;10.088;2022-10-16T04:48:37;96637.19;;;18.70;68.63
20971;BME280;10644;48.834;10.088;2022-10-16T04:51:02;96634.72;;;18.69;68.52
20971;BME280;10644;48.834;10.088;2022-10-16T04:53:30;96650.59;;;18.85;68.39
20971;BME280;10644;48.834;10.088;2022-10-16T04:55:56;96649.22;;;18.81;68.09
20971;BME280;10644;48.834;10.088;2022-10-16T04:58:25;96655.03;;;18.64;68.43
20971;BME280;10644;48.834;10.088;2022-10-16T05:00:50;96652.97;;;18.58;69.03
20971;BME280;10644;48.834;10.088;2022-10-16T05:03:24;96647.69;;;18.69;68.13
20971;BME280;10644;48.834;10.088;2022-10-16T05:06:05;96647.84;;;18.67;67.99
20971;BME280;10644;48.834;10.088;2022-10-16T05:08:31;96652.88;;;18.69;68.14
20971;BME280;10644;48.834;10.088;2022-10-16T05:10:56;96652.97;;;18.48;68.35
20971;BME280;10644;48.834;10.088;2022-10-16T05:13:23;96655.56;;;18.58;68.14
20971;BME280;10644;48.834;10.088;2022-10-16T05:15:48;96647.53;;;18.61;67.99
20971;BME280;10644;48.834;10.088;2022-10-16T05:18:14;96652.72;;;18.61;68.21
20971;BME280;10644;48.834;10.088;2022-10-16T05:20:41;96655.47;;;18.69;67.85
20971;BME280;10644;48.834;10.088;2022-10-16T05:23:12;96654.13;;;18.74;67.79
20971;BME280;10644;48.834;10.088;2022-10-16T05:25:37;96644.25;;;18.59;68.22
20971;BME280;10644;48.834;10.088;2022-10-16T05:28:04;96655.41;;;18.40;68.84
20971;BME280;10644;48.834;10.088;2022-10-16T05:30:30;96655.84;;;18.55;68.55
20971;BME280;10644;48.834;10.088;2022-10-16T05:33:01;96657.38;;;18.67;68.21
20971;BME280;10644;48.834;10.088;2022-10-16T05:35:26;96664.25;;;18.77;67.74
20971;BME280;10644;48.834;10.088;2022-10-16T05:37:52;96662.19;;;18.81;67.76
20971;BME280;10644;48.834;10.088;2022-10-16T05:40:26;96666.19;;;18.85;67.19
20971;BME280;10644;48.834;10.088;2022-10-16T05:42:54;96662.38;;;18.89;67.48
20971;BME280;10644;48.834;10.088;2022-10-16T05:45:20;96665.72;;;18.61;68.17
20971;BME280;10644;48.834;10.088;2022-10-16T05:47:45;96683.56;;;18.54;69.13
20971;BME280;10644;48.834;10.088;2022-10-16T05:50:26;96672.09;;;18.57;68.82
20971;BME280;10644;48.834;10.088;2022-10-16T05:52:58;96678.69;;;18.61;68.44
20971;BME280;10644;48.834;10.088;2022-10-16T05:55:27;96674.34;;;18.71;68.06
20971;BME280;10644;48.834;10.088;2022-10-16T05:57:54;96671.09;;;18.39;68.75
20971;BME280;10644;48.834;10.088;2022-10-16T06:00:26;96680.13;;;18.24;69.34
20971;BME280;10644;48.834;10.088;2022-10-16T06:02:52;96669.19;;;18.20;69.91
20971;BME280;10644;48.834;10.088;2022-10-16T06:05:20;96671.81;;;18.30;69.71
20971;BME280;10644;48.834;10.088;2022-10-16T06:07:52;96677.38;;;18.46;69.45
20971;BME280;10644;48.834;10.088;2022-10-16T06:10:23;96679.03;;;18.47;69.21
20971;BME280;10644;48.834;10.088;2022-10-16T06:12:50;96683.63;;;18.34;69.48
20971;BME280;10644;48.834;10.088;2022-10-16T06:15:20;96687.84;;;18.35;69.71
20971;BME280;10644;48.834;10.088;2022-10-16T06:17:45;96682.16;;;18.41;69.58
20971;BME280;10644;48.834;10.088;2022-10-16T06:20:11;96692.28;;;18.44;69.11
20971;BME280;10644;48.834;10.088;2022-10-16T06:22:37;96696.94;;;18.50;69.63
20971;BME280;10644;48.834;10.088;2022-10-16T06:25:03;96694.94;;;18.63;69.16
20971;BME280;10644;48.834;10.088;2022-10-16T06:27:32;96695.13;;;18.71;68.71
20971;BME280;10644;48.834;10.088;2022-10-16T06:29:57;96706.59;;;18.78;68.63
20971;BME280;10644;48.834;10.088;2022-10-16T06:32:23;96706.72;;;18.76;68.54
20971;BME280;10644;48.834;10.088;2022-10-16T06:34:48;96706.41;;;18.60;68.98
20971;BME280;10644;48.834;10.088;2022-10-16T06:37:13;96712.13;;;18.64;69.10
20971;BME280;10644;48.834;10.088;2022-10-16T06:39:40;96719.94;;;18.64;69.30
20971;BME280;10644;48.834;10.088;2022-10-16T06:42:15;96713.56;;;18.77;68.82
20971;BME280;10644;48.834;10.088;2022-10-16T06:44:42;96709.50;;;18.54;68.82
20971;BME280;10644;48.834;10.088;2022-10-16T06:47:11;96715.22;;;18.48;69.34
20971;BME280;10644;48.834;10.088;2022-10-16T06:49:50;96732.47;;;18.59;69.37
20971;BME280;10644;48.834;10.088;2022-10-16T06:52:17;96739.03;;;18.63;69.11
20971;BME280;10644;48.834;10.088;2022-10-16T06:54:46;96743.28;;;18.64;68.82
20971;BME280;10644;48.834;10.088;2022-10-16T06:57:20;96739.59;;;18.66;68.98
20971;BME280;10644;48.834;10.088;2022-10-16T06:59:46;96741.75;;;18.82;68.55
20971;BME280;10644;48.834;10.088;2022-10-16T07:02:18;96740.25;;;18.89;68.55
20971;BME280;10644;48.834;10.088;2022-10-16T07:04:55;96749.25;;;18.85;68.65
20971;BME280;10644;48.834;10.088;2022-10-16T07:07:22;96748.53;;;18.73;69.03
20971;BME280;10644;48.834;10.088;2022-10-16T07:09:52;96747.19;;;18.79;69.56
20971;BME280;10644;48.834;10.088;2022-10-16T07:12:19;96748.91;;;18.69;69.67
20971;BME280;10644;48.834;10.088;2022-10-16T07:14:44;96742.00;;;18.49;70.23
20971;BME280;10644;48.834;10.088;2022-10-16T07:17:10;96739.69;;;18.55;70.39
20971;BME280;10644;48.834;10.088;2022-10-16T07:19:37;96747.88;;;18.51;70.98
20971;BME280;10644;48.834;10.088;2022-10-16T07:22:03;96744.19;;;18.53;71.17
20971;BME280;10644;48.834;10.088;2022-10-16T07:24:28;96745.19;;;18.62;70.77
20971;BME280;10644;48.834;10.088;2022-10-16T07:27:06;96748.84;;;18.50;70.75
20971;BME280;10644;48.834;10.088;2022-10-16T07:29:33;96758.63;;;18.76;70.95
20971;BME280;10644;48.834;10.088;2022-10-16T07:32:01;96759.53;;;18.96;69.78
20971;BME280;10644;48.834;10.088;2022-10-16T07:34:27;96768.31;;;19.04;69.19
20971;BME280;10644;48.834;10.088;2022-10-16T07:36:58;96762.34;;;19.13;69.07
20971;BME280;10644;48.834;10.088;2022-10-16T07:39:23;96766.22;;;19.28;68.86
20971;BME280;10644;48.834;10.088;2022-10-16T07:42:06;96773.34;;;19.36;68.69
20971;BME280;10644;48.834;10.088;2022-10-16T07:44:37;96767.34;;;19.45;68.62
20971;BME280;10644;48.834;10.088;2022-10-16T07:47:12;96770.25;;;19.61;68.15
20971;BME280;10644;48.834;10.088;2022-10-16T07:49:41;96782.53;;;19.59;68.03
20971;BME280;10644;48.834;10.088;2022-10-16T07:52:06;96780.91;;;19.77;68.04
20971;BME280;10644;48.834;10.088;2022-10-16T07:54:51;96781.06;;;19.85;66.53
20971;BME280;10644;48.834;10.088;2022-10-16T07:57:31;96781.44;;;19.71;67.30
20971;BME280;10644;48.834;10.088;2022-10-16T08:00:03;96787.78;;;19.78;67.40
20971;BME280;10644;48.834;10.088;2022-10-16T08:02:29;96790.78;;;19.83;67.12
20971;BME280;10644;48.834;10.088;2022-10-16T08:05:01;96801.72;;;19.96;66.70
20971;BME280;10644;48.834;10.088;2022-10-16T08:07:26;96800.41;;;20.11;66.58
20971;BME280;10644;48.834;10.088;2022-10-16T08:10:00;96804.19;;;20.26;66.26
20971;BME280;10644;48.834;10.088;2022-10-16T08:12:34;96811.84;;;20.37;66.30
20971;BME280;10644;48.834;10.088;2022-10-16T08:15:02;96807.22;;;20.31;65.55
20971;BME280;10644;48.834;10.088;2022-10-16T08:17:28;96816.25;;;20.17;66.18
20971;BME280;10644;48.834;10.088;2022-10-16T08:19:53;96819.69;;;20.27;65.96
20971;BME280;10644;48.834;10.088;2022-10-16T08:22:18;96818.69;;;20.38;65.85
20971;BME280;10644;48.834;10.088;2022-10-16T08:24:45;96833.75;;;20.44;65.32
20971;BME280;10644;48.834;10.088;2022-10-16T08:27:12;96816.81;;;20.40;65.74
20971;BME280;10644;48.834;10.088;2022-10-16T08:29:37;96818.53;;;20.49;65.70
20971;BME280;10644;48.834;10.088;2022-10-16T08:32:16;96828.28;;;20.56;65.86
20971;BME280;10644;48.834;10.088;2022-10-16T08:34:41;96824.44;;;20.41;66.03
20971;BME280;10644;48.834;10.088;2022-10-16T08:37:07;96829.94;;;20.38;66.23
20971;BME280;10644;48.834;10.088;2022-10-16T08:39:38;96836.34;;;19.96;67.09
20971;BME280;10644;48.834;10.088;2022-10-16T08:45:10;96836.50;;;19.95;67.31
20971;BME280;10644;48.834;10.088;2022-10-16T08:47:49;96835.66;;;19.85;67.59
20971;BME280;10644;48.834;10.088;2022-10-16T08:50:27;96834.56;;;19.78;67.87
20971;BME280;10644;48.834;10.088;2022-10-16T08:53:04;96833.06;;;19.85;67.71
20971;BME280;10644;48.834;10.088;2022-10-16T08:55:43;96834.91;;;20.13;67.16
20971;BME280;10644;48.834;10.088;2022-10-16T08:58:31;96832.09;;;19.86;67.97
20971;BME280;10644;48.834;10.088;2022-10-16T09:00:59;96837.44;;;19.94;67.66
20971;BME280;10644;48.834;10.088;2022-10-16T09:06:17;96839.00;;;20.15;67.21
20971;BME280;10644;48.834;10.088;2022-10-16T09:12:21;96842.28;;;20.27;66.62
20971;BME280;10644;48.834;10.088;2022-10-16T09:15:01;96845.84;;;20.45;66.03
20971;BME280;10644;48.834;10.088;2022-10-16T09:25:48;96853.94;;;21.07;64.82
20971;BME280;10644;48.834;10.088;2022-10-16T09:28:14;96855.31;;;21.01;63.92
20971;BME280;10644;48.834;10.088;2022-10-16T09:30:42;96862.44;;;21.09;64.07
20971;BME280;10644;48.834;10.088;2022-10-16T09:33:12;96863.41;;;21.08;63.94
20971;BME280;10644;48.834;10.088;2022-10-16T09:35:52;96868.00;;;21.23;63.88
20971;BME280;10644;48.834;10.088;2022-10-16T09:38:30;96875.13;;;21.31;64.01
20971;BME280;10644;48.834;10.088;2022-10-16T09:41:11;96862.56;;;21.44;63.25
20971;BME280;10644;48.834;10.088;2022-10-16T09:46:06;96863.81;;;21.40;62.03
20971;BME280;10644;48.834;10.088;2022-10-16T09:48:46;96879.81;;;21.54;61.72
20971;BME280;10644;48.834;10.088;2022-10-16T09:51:40;96880.34;;;21.58;61.54
20971;BME280;10644;48.834;10.088;2022-10-16T09:56:33;96878.25;;;21.61;60.98
20971;BME280;10644;48.834;10.088;2022-10-16T09:59:10;96874.66;;;21.72;61.18
20971;BME280;10644;48.834;10.088;2022-10-16T10:01:38;96873.19;;;21.87;60.60
20971;BME280;10644;48.834;10.088;2022-10-16T10:04:08;96881.47;;;22.00;60.48
20971;BME280;10644;48.834;10.088;2022-10-16T10:06:52;96881.19;;;22.03;59.53
20971;BME280;10644;48.834;10.088;2022-10-16T10:09:31;96873.28;;;21.95;59.53
20971;BME280;10644;48.834;10.088;2022-10-16T10:12:01;96876.66;;;22.05;59.47
20971;BME280;10644;48.834;10.088;2022-10-16T10:14:39;96872.31;;;22.13;59.14
20971;BME280;10644;48.834;10.088;2022-10-16T10:17:22;96871.44;;;22.22;59.57
20971;BME280;10644;48.834;10.088;2022-10-16T10:22:45;96875.56;;;22.25;59.42
20971;BME280;10644;48.834;10.088;2022-10-16T10:27:42;96882.47;;;22.34;58.53
20971;BME280;10644;48.834;10.088;2022-10-16T10:30:29;96883.81;;;22.38;58.66
20971;BME280;10644;48.834;10.088;2022-10-16T10:38:57;96879.38;;;22.48;58.68
20971;BME280;10644;48.834;10.088;2022-10-16T10:50:37;96874.31;;;22.72;56.81
20971;BME280;10644;48.834;10.088;2022-10-16T10:58:57;96880.47;;;22.88;57.70
20971;BME280;10644;48.834;10.088;2022-10-16T11:01:45;96885.06;;;22.69;56.56
20971;BME280;10644;48.834;10.088;2022-10-16T11:04:50;96885.50;;;22.82;57.77
20971;BME280;10644;48.834;10.088;2022-10-16T11:07:40;96888.56;;;23.03;57.90
20971;BME280;10644;48.834;10.088;2022-10-16T11:10:15;96896.63;;;23.27;57.33
20971;BME280;10644;48.834;10.088;2022-10-16T11:12:52;96885.19;;;23.36;57.13
20971;BME280;10644;48.834;10.088;2022-10-16T11:15:28;96886.41;;;23.41;56.73
20971;BME280;10644;48.834;10.088;2022-10-16T11:18:12;96872.47;;;23.41;56.87
20971;BME280;10644;48.834;10.088;2022-10-16T11:24:35;96884.03;;;23.97;56.45
20971;BME280;10644;48.834;10.088;2022-10-16T11:27:16;96884.25;;;24.28;54.87
20971;BME280;10644;48.834;10.088;2022-10-16T11:29:55;96886.25;;;24.58;54.46
20971;BME280;10644;48.834;10.088;2022-10-16T11:32:31;96871.66;;;24.71;54.19
20971;BME280;10644;48.834;10.088;2022-10-16T11:35:03;96858.03;;;24.92;53.36
20971;BME280;10644;48.834;10.088;2022-10-16T11:37:43;96873.06;;;25.22;53.98
20971;BME280;10644;48.834;10.088;2022-10-16T11:43:41;96876.84;;;25.74;51.18
20971;BME280;10644;48.834;10.088;2022-10-16T11:46:29;96870.41;;;25.84;47.60
20971;BME280;10644;48.834;10.088;2022-10-16T11:49:19;96866.13;;;25.91;46.61
20971;BME280;10644;48.834;10.088;2022-10-16T11:55:26;96875.91;;;26.05;48.00
20971;BME280;10644;48.834;10.088;2022-10-16T11:58:05;96868.78;;;26.36;45.28
20971;BME280;10644;48.834;10.088;2022-10-16T12:10:26;96871.25;;;26.83;46.12
20971;BME280;10644;48.834;10.088;2022-10-16T12:12:58;96862.47;;;27.05;46.05
20971;BME280;10644;48.834;10.088;2022-10-16T12:15:39;96850.63;;;27.38;46.07
20971;BME280;10644;48.834;10.088;2022-10-16T12:18:26;96854.97;;;27.60;44.06
20971;BME280;10644;48.834;10.088;2022-10-16T12:21:11;96855.59;;;27.62;45.15
20971;BME280;10644;48.834;10.088;2022-10-16T12:26:33;96849.88;;;27.15;44.85
20971;BME280;10644;48.834;10.088;2022-10-16T12:29:33;96855.03;;;27.08;45.82
20971;BME280;10644;48.834;10.088;2022-10-16T12:32:30;96860.00;;;27.26;45.22
20971;BME280;10644;48.834;10.088;2022-10-16T12:35:20;96858.81;;;27.43;44.34
20971;BME280;10644;48.834;10.088;2022-10-16T12:41:34;96855.06;;;27.52;42.82
20971;BME280;10644;48.834;10.088;2022-10-16T12:46:52;96847.34;;;27.36;40.69
20971;BME280;10644;48.834;10.088;2022-10-16T12:49:34;96850.19;;;27.34;42.72
20971;BME280;10644;48.834;10.088;2022-10-16T12:52:02;96848.53;;;27.62;41.32
20971;BME280;10644;48.834;10.088;2022-10-16T12:54:35;96853.06;;;27.83;40.99
20971;BME280;10644;48.834;10.088;2022-10-16T13:06:30;96850.63;;;28.80;41.21
20971;BME280;10644;48.834;10.088;2022-10-16T13:14:47;96867.72;;;28.90;37.57
20971;BME280;10644;48.834;10.088;2022-10-16T13:23:13;96870.34;;;28.42;39.47
20971;BME280;10644;48.834;10.088;2022-10-16T13:25:56;96863.75;;;28.31;39.17
20971;BME280;10644;48.834;10.088;2022-10-16T13:28:33;96877.97;;;28.16;39.19
20971;BME280;10644;48.834;10.088;2022-10-16T13:31:04;96877.50;;;27.91;38.99
20971;BME280;10644;48.834;10.088;2022-10-16T13:33:36;96877.66;;;27.90;39.87
20971;BME280;10644;48.834;10.088;2022-10-16T13:36:03;96877.97;;;28.16;39.58
20971;BME280;10644;48.834;10.088;2022-10-16T13:38:32;96877.50;;;28.12;39.40
20971;BME280;10644;48.834;10.088;2022-10-16T13:41:14;96872.94;;;28.00;40.40
20971;BME280;10644;48.834;10.088;2022-10-16T13:43:44;96874.69;;;28.14;39.27
20971;BME280;10644;48.834;10.088;2022-10-16T13:46:19;96883.47;;;28.21;40.00
20971;BME280;10644;48.834;10.088;2022-10-16T13:49:00;96882.94;;;27.90;40.21
20971;BME280;10644;48.834;10.088;2022-10-16T13:51:32;96880.66;;;27.72;41.09
20971;BME280;10644;48.834;10.088;2022-10-16T13:54:02;96887.03;;;27.34;40.83
20971;BME280;10644;48.834;10.088;2022-10-16T13:56:31;96895.84;;;27.27;41.17
20971;BME280;10644;48.834;10.088;2022-10-16T13:59:02;96893.94;;;27.21;41.61
20971;BME280;10644;48.834;10.088;2022-10-16T14:01:39;96893.47;;;27.32;41.53
20971;BME280;10644;48.834;10.088;2022-10-16T14:04:08;96891.88;;;27.08;41.95
20971;BME280;10644;48.834;10.088;2022-10-16T14:06:36;96895.28;;;27.17;41.95
20971;BME280;10644;48.834;10.088;2022-10-16T14:09:23;96888.06;;;27.48;42.08
20971;BME280;10644;48.834;10.088;2022-10-16T14:11:53;96895.00;;;27.84;40.98
20971;BME280;10644;48.834;10.088;2022-10-16T14:14:35;96894.91;;;28.07;41.06
20971;BME280;10644;48.834;10.088;2022-10-16T14:17:05;96892.03;;;28.23;40.82
20971;BME280;10644;48.834;10.088;2022-10-16T14:19:40;96876.53;;;28.34;41.08
20971;BME280;10644;48.834;10.088;2022-10-16T14:22:32;96891.09;;;28.45;41.44
20971;BME280;10644;48.834;10.088;2022-10-16T14:24:57;96897.66;;;28.55;40.09
20971;BME280;10644;48.834;10.088;2022-10-16T14:27:30;96899.50;;;28.55;39.78
20971;BME280;10644;48.834;10.088;2022-10-16T14:30:16;96906.09;;;28.30;40.54
20971;BME280;10644;48.834;10.088;2022-10-16T14:35:34;96898.50;;;28.20;39.77
20971;BME280;10644;48.834;10.088;2022-10-16T14:38:18;96900.38;;;27.91;41.04
20971;BME280;10644;48.834;10.088;2022-10-16T14:40:48;96895.66;;;27.43;41.58
20971;BME280;10644;48.834;10.088;2022-10-16T14:43:22;96896.28;;;27.45;42.40
20971;BME280;10644;48.834;10.088;2022-10-16T14:45:54;96896.91;;;27.47;41.84
20971;BME280;10644;48.834;10.088;2022-10-16T14:48:21;96901.91;;;27.42;42.16
20971;BME280;10644;48.834;10.088;2022-10-16T14:50:47;96900.94;;;27.43;42.19
20971;BME280;10644;48.834;10.088;2022-10-16T14:53:26;96898.47;;;27.41;43.05
20971;BME280;10644;48.834;10.088;2022-10-16T14:55:52;96900.22;;;27.34;42.77
20971;BME280;10644;48.834;10.088;2022-10-16T14:58:21;96903.63;;;27.35;43.14
20971;BME280;10644;48.834;10.088;2022-10-16T15:01:02;96900.66;;;27.38;43.24
20971;BME280;10644;48.834;10.088;2022-10-16T15:03:27;96895.56;;;27.36;43.56
20971;BME280;10644;48.834;10.088;2022-10-16T15:05:53;96902.47;;;27.37;43.50
20971;BME280;10644;48.834;10.088;2022-10-16T15:08:20;96899.53;;;27.32;43.54
20971;BME280;10644;48.834;10.088;2022-10-16T15:10:45;96906.38;;;27.27;44.42
20971;BME280;10644;48.834;10.088;2022-10-16T15:13:12;96911.19;;;27.01;45.40
20971;BME280;10644;48.834;10.088;2022-10-16T15:15:44;96905.22;;;26.70;46.42
20971;BME280;10644;48.834;10.088;2022-10-16T15:18:10;96906.78;;;26.56;47.21
20971;BME280;10644;48.834;10.088;2022-10-16T15:20:42;96907.00;;;26.47;47.45